Time;durP1;ratioP1;P1;durP2;ratioP2;P2;SDS_P1;SDS_P2;PMS_P1;PMS_P2;Temp;Humidity;BMP_temperature;BMP_pressure;BME280_temperature;BME280_humidity;BME280_pressure;Samples;Min_cycle;Max_cycle;Signal;HPM_P1;HPM_P2
2022/05/16 00:01:19;;;;;;;1.70;1.25;;;10.60;99.90;;;;;;5010683;28;20037;-45
2022/05/16 00:03:45;;;;;;;3.30;1.17;;;10.60;99.90;;;;;;5010984;28;20033;-45
2022/05/16 00:06:10;;;;;;;4.47;1.52;;;10.60;99.90;;;;;;5010824;28;20033;-46
2022/05/16 00:08:36;;;;;;;1.48;1.15;;;10.60;99.90;;;;;;5010942;28;20026;-44
2022/05/16 00:11:02;;;;;;;3.10;1.30;;;10.60;99.90;;;;;;5010954;28;20026;-44
2022/05/16 00:13:27;;;;;;;2.97;1.45;;;10.60;99.90;;;;;;5010592;28;20469;-44
2022/05/16 00:15:55;;;;;;;3.03;1.50;;;10.60;99.90;;;;;;5010881;28;20033;-45
2022/05/16 00:18:20;;;;;;;1.20;1.10;;;10.50;99.90;;;;;;5010741;28;20021;-45
2022/05/16 00:20:46;;;;;;;2.58;1.70;;;10.50;99.90;;;;;;5010454;28;20033;-48
2022/05/16 00:23:12;;;;;;;2.85;1.20;;;10.50;99.90;;;;;;5010348;28;20029;-46
2022/05/16 00:25:37;;;;;;;1.92;1.23;;;10.50;99.90;;;;;;5010273;28;20409;-47
2022/05/16 00:28:03;;;;;;;2.17;1.48;;;10.50;99.90;;;;;;5010439;28;20413;-44
2022/05/16 00:30:30;;;;;;;3.05;1.60;;;10.40;99.90;;;;;;5010526;28;20120;-45
2022/05/16 00:32:56;;;;;;;3.33;1.35;;;10.40;99.90;;;;;;5010568;28;20022;-44
2022/05/16 00:35:22;;;;;;;2.95;1.38;;;10.40;99.90;;;;;;5009163;28;20109;-46
2022/05/16 00:37:48;;;;;;;1.52;1.27;;;10.30;99.90;;;;;;5010357;28;20041;-46
2022/05/16 00:40:15;;;;;;;3.03;2.13;;;10.30;99.90;;;;;;5009076;28;20478;-47
2022/05/16 00:42:41;;;;;;;6.10;1.45;;;10.30;99.90;;;;;;5010073;28;20034;-43
2022/05/16 00:45:10;;;;;;;3.35;1.60;;;10.30;99.90;;;;;;5007495;28;20041;-45
2022/05/16 00:47:35;;;;;;;2.55;1.45;;;10.30;99.90;;;;;;5010097;28;20484;-45
2022/05/16 00:50:02;;;;;;;3.35;1.88;;;10.30;99.90;;;;;;5009217;28;20025;-45
2022/05/16 00:52:33;;;;;;;4.95;1.60;;;10.20;99.90;;;;;;5008665;28;20022;-45
2022/05/16 00:55:33;;;;;;;3.60;1.55;;;10.20;99.90;;;;;;5010110;28;20057;-45
2022/05/16 00:58:04;;;;;;;2.65;1.30;;;10.20;99.90;;;;;;5009368;28;20032;-45
2022/05/16 01:00:34;;;;;;;1.90;1.42;;;10.20;99.90;;;;;;5007547;28;20030;-45
2022/05/16 01:05:47;;;;;;;4.95;2.08;;;10.10;99.90;;;;;;5010458;28;20453;-47
2022/05/16 01:08:16;;;;;;;3.17;1.55;;;10.10;99.90;;;;;;5009103;28;20025;-46
2022/05/16 01:10:42;;;;;;;3.38;1.60;;;10.10;99.90;;;;;;5008813;28;20025;-45
2022/05/16 01:13:08;;;;;;;2.33;1.10;;;10.10;99.90;;;;;;5009903;28;20501;-45
2022/05/16 01:15:36;;;;;;;3.00;1.60;;;10.10;99.90;;;;;;5010200;28;20026;-44
2022/05/16 01:18:04;;;;;;;1.85;1.45;;;10.00;99.90;;;;;;5009959;28;20057;-45
2022/05/16 01:21:01;;;;;;;2.92;1.85;;;10.00;99.90;;;;;;5009530;28;20445;-47
2022/05/16 01:23:28;;;;;;;3.58;1.67;;;10.00;99.90;;;;;;5009688;28;20156;-44
2022/05/16 01:25:54;;;;;;;2.65;1.45;;;10.00;99.90;;;;;;5008438;28;20033;-46
2022/05/16 01:28:23;;;;;;;2.60;1.52;;;9.90;99.90;;;;;;5009637;28;20389;-44
2022/05/16 01:30:50;;;;;;;4.20;1.67;;;9.90;99.90;;;;;;5009769;28;20022;-45
2022/05/16 01:33:18;;;;;;;2.20;1.60;;;9.90;99.90;;;;;;5009681;28;20393;-45
2022/05/16 01:35:44;;;;;;;4.63;2.15;;;9.90;99.90;;;;;;5010010;28;20026;-46
2022/05/16 01:38:19;;;;;;;2.22;1.38;;;9.90;99.90;;;;;;5010211;28;20122;-44
2022/05/16 01:41:07;;;;;;;3.92;1.92;;;9.90;99.90;;;;;;5010055;28;20026;-48
2022/05/16 01:43:37;;;;;;;4.15;2.05;;;9.90;99.90;;;;;;5009787;28;20490;-44
2022/05/16 01:46:04;;;;;;;3.22;1.70;;;9.90;99.90;;;;;;5009902;28;20080;-45
2022/05/16 01:48:30;;;;;;;5.32;2.30;;;9.80;99.90;;;;;;5006791;28;20034;-50
2022/05/16 01:51:09;;;;;;;4.75;1.83;;;9.80;99.90;;;;;;4997622;28;20030;-45
2022/05/16 01:53:35;;;;;;;4.18;1.85;;;9.80;99.90;;;;;;4995314;28;20030;-45
2022/05/16 01:56:01;;;;;;;5.05;1.92;;;9.80;99.90;;;;;;4988998;28;20026;-46
2022/05/16 01:58:26;;;;;;;6.15;2.65;;;9.80;99.90;;;;;;4989964;28;20449;-46
2022/05/16 02:00:52;;;;;;;2.15;1.55;;;9.80;99.90;;;;;;4990271;28;20129;-46
2022/05/16 02:03:18;;;;;;;2.45;1.67;;;9.70;99.90;;;;;;4993389;28;20030;-46
2022/05/16 02:05:45;;;;;;;6.20;2.13;;;9.70;99.90;;;;;;4993549;28;20030;-46
2022/05/16 02:08:11;;;;;;;4.18;2.00;;;9.70;99.90;;;;;;4993880;28;20524;-47
2022/05/16 02:10:37;;;;;;;3.28;1.60;;;9.70;99.90;;;;;;4993536;28;20044;-47
2022/05/16 02:13:04;;;;;;;5.25;2.03;;;9.70;99.90;;;;;;4993181;28;20106;-45
2022/05/16 02:15:33;;;;;;;5.93;2.38;;;9.60;99.90;;;;;;4993834;28;20037;-48
2022/05/16 02:17:59;;;;;;;5.18;2.08;;;9.60;99.90;;;;;;4993439;28;20402;-45
2022/05/16 02:20:26;;;;;;;4.47;2.10;;;9.60;99.90;;;;;;4992899;28;20033;-47
2022/05/16 02:25:39;;;;;;;5.10;2.00;;;9.60;99.90;;;;;;4993347;28;20050;-45
2022/05/16 02:28:06;;;;;;;5.22;2.42;;;9.60;99.90;;;;;;4993406;28;20032;-47
2022/05/16 02:30:32;;;;;;;2.53;1.95;;;9.60;99.90;;;;;;4992980;28;20057;-47
2022/05/16 02:32:58;;;;;;;2.55;1.88;;;9.50;99.90;;;;;;4993003;28;20443;-45
2022/05/16 02:35:23;;;;;;;6.05;2.42;;;9.50;99.90;;;;;;4993173;28;20030;-46
2022/05/16 02:37:49;;;;;;;3.85;2.38;;;9.50;99.90;;;;;;4993033;28;20089;-45
2022/05/16 02:40:16;;;;;;;3.67;2.17;;;9.50;99.90;;;;;;4992760;28;20108;-48
2022/05/16 02:42:41;;;;;;;6.75;2.00;;;9.50;99.90;;;;;;4992718;28;20041;-45
2022/05/16 02:45:08;;;;;;;4.28;2.33;;;9.50;99.90;;;;;;4993093;28;20430;-47
2022/05/16 02:47:35;;;;;;;3.97;2.25;;;9.50;99.90;;;;;;4992853;28;20156;-45
2022/05/16 02:50:01;;;;;;;3.83;2.35;;;9.50;99.90;;;;;;4992894;28;20018;-45
2022/05/16 02:52:26;;;;;;;4.05;2.03;;;9.40;99.90;;;;;;4992772;28;20108;-47
2022/05/16 02:54:52;;;;;;;5.00;2.10;;;9.40;99.90;;;;;;4992836;28;20058;-46
2022/05/16 02:57:18;;;;;;;4.53;2.28;;;9.40;99.90;;;;;;4992917;28;20033;-46
2022/05/16 02:59:43;;;;;;;2.50;1.73;;;9.40;99.90;;;;;;4992467;28;20039;-46
2022/05/16 03:02:11;;;;;;;3.42;2.10;;;9.40;99.90;;;;;;4992618;28;20041;-45
2022/05/16 03:04:37;;;;;;;5.78;2.35;;;9.40;99.90;;;;;;4992741;28;20027;-46
2022/05/16 03:07:04;;;;;;;3.80;2.20;;;9.30;99.90;;;;;;4992736;28;20061;-46
2022/05/16 03:09:32;;;;;;;6.30;2.72;;;9.30;99.90;;;;;;4992464;28;20046;-47
2022/05/16 03:11:58;;;;;;;6.30;2.60;;;9.30;99.90;;;;;;4992198;28;20390;-45
2022/05/16 03:14:23;;;;;;;3.75;2.20;;;9.30;99.90;;;;;;4991558;28;20041;-45
2022/05/16 03:16:49;;;;;;;8.75;2.60;;;9.30;99.90;;;;;;4992322;28;20487;-45
2022/05/16 03:19:15;;;;;;;5.63;2.63;;;9.30;99.90;;;;;;4991810;28;20497;-48
2022/05/16 03:21:42;;;;;;;2.97;1.98;;;9.30;99.90;;;;;;4991888;28;20053;-45
2022/05/16 03:24:11;;;;;;;2.70;2.20;;;9.20;99.90;;;;;;4991751;28;20061;-46
2022/05/16 03:26:38;;;;;;;4.07;2.03;;;9.20;99.90;;;;;;4992049;28;20097;-47
2022/05/16 03:29:07;;;;;;;4.55;2.70;;;9.20;99.90;;;;;;4990854;28;20093;-45
2022/05/16 03:31:36;;;;;;;4.45;2.40;;;9.20;99.90;;;;;;4991780;28;20518;-48
2022/05/16 03:34:01;;;;;;;3.20;2.42;;;9.20;99.90;;;;;;4992051;28;20029;-47
2022/05/16 03:36:27;;;;;;;6.55;2.78;;;9.20;99.90;;;;;;4991776;28;20030;-48
2022/05/16 03:41:36;;;;;;;3.03;2.38;;;9.20;99.90;;;;;;4992132;28;20174;-46
2022/05/16 03:44:02;;;;;;;7.22;2.88;;;9.20;99.90;;;;;;4991981;28;20507;-48
2022/05/16 03:46:28;;;;;;;7.63;2.78;;;9.20;99.90;;;;;;4990570;28;20027;-44
2022/05/16 03:48:53;;;;;;;5.53;2.88;;;9.20;99.90;;;;;;4991788;28;20026;-51
2022/05/16 03:51:19;;;;;;;6.93;2.20;;;9.20;99.90;;;;;;4991380;28;20470;-46
2022/05/16 03:53:48;;;;;;;4.78;2.63;;;9.20;99.90;;;;;;4991747;28;20394;-46
2022/05/16 03:56:20;;;;;;;3.85;2.47;;;9.30;99.90;;;;;;4991918;28;20157;-46
2022/05/16 03:58:46;;;;;;;5.22;2.65;;;9.20;99.90;;;;;;4991542;28;20673;-47
2022/05/16 04:01:12;;;;;;;7.07;2.35;;;9.20;99.90;;;;;;4990949;28;20126;-46
2022/05/16 04:03:38;;;;;;;6.55;2.50;;;9.20;99.90;;;;;;4989866;28;20030;-45
2022/05/16 04:06:04;;;;;;;4.80;2.53;;;9.30;99.90;;;;;;4991304;28;20493;-45
2022/05/16 04:08:31;;;;;;;5.22;2.25;;;9.20;99.90;;;;;;4991327;28;20053;-46
2022/05/16 04:10:57;;;;;;;7.35;2.38;;;9.20;99.90;;;;;;4991294;28;20041;-44
2022/05/16 04:13:23;;;;;;;4.40;2.38;;;9.30;99.90;;;;;;4991166;28;20028;-45
2022/05/16 04:15:49;;;;;;;4.55;2.60;;;9.20;99.90;;;;;;4990198;28;20034;-45
2022/05/16 04:18:15;;;;;;;3.70;2.13;;;9.20;99.90;;;;;;4991300;28;20387;-45
2022/05/16 04:20:41;;;;;;;3.33;2.65;;;9.20;99.90;;;;;;4991149;28;20081;-47
2022/05/16 04:23:10;;;;;;;4.05;2.70;;;9.30;99.90;;;;;;4991063;28;20054;-45
2022/05/16 04:25:37;;;;;;;4.40;2.75;;;9.30;99.90;;;;;;4990851;28;20399;-45
2022/05/16 04:28:07;;;;;;;4.63;2.40;;;9.30;99.90;;;;;;4990654;28;20019;-45
2022/05/16 04:30:33;;;;;;;6.00;2.20;;;9.30;99.90;;;;;;4990943;28;20542;-46
2022/05/16 04:32:59;;;;;;;3.78;2.35;;;9.40;99.90;;;;;;4990199;28;20030;-45
2022/05/16 04:35:25;;;;;;;4.22;2.47;;;9.40;99.90;;;;;;4990522;28;20045;-45
2022/05/16 04:37:51;;;;;;;6.53;2.40;;;9.50;99.90;;;;;;4989231;28;20030;-47
2022/05/16 04:40:17;;;;;;;4.90;2.63;;;9.50;99.90;;;;;;4990409;28;20380;-47
2022/05/16 04:42:46;;;;;;;5.85;2.60;;;9.60;99.90;;;;;;4990167;28;20084;-47
2022/05/16 04:45:13;;;;;;;4.93;2.67;;;9.60;99.90;;;;;;4990566;28;20037;-45
2022/05/16 04:47:39;;;;;;;4.57;2.67;;;9.60;99.90;;;;;;4990293;28;20121;-48
2022/05/16 04:50:06;;;;;;;8.65;2.85;;;9.70;99.90;;;;;;4990141;28;20026;-45
2022/05/16 04:52:32;;;;;;;3.13;2.40;;;9.70;99.90;;;;;;4990185;28;20084;-48
2022/05/16 04:55:00;;;;;;;3.15;2.00;;;9.80;99.90;;;;;;4990679;28;20026;-45
2022/05/16 04:57:26;;;;;;;5.15;2.42;;;9.80;99.90;;;;;;4990877;28;20427;-46
2022/05/16 04:59:51;;;;;;;4.18;2.20;;;9.90;99.90;;;;;;4990271;28;20038;-47
2022/05/16 05:02:18;;;;;;;6.22;2.67;;;9.90;99.90;;;;;;4989016;28;20526;-46
2022/05/16 05:04:44;;;;;;;2.92;2.38;;;10.00;99.90;;;;;;4990448;28;20065;-46
2022/05/16 05:07:11;;;;;;;5.38;2.50;;;10.10;99.90;;;;;;4990454;28;20128;-46
2022/05/16 05:15:09;;;;;;;5.97;2.90;;;10.20;99.90;;;;;;4990714;28;20034;-47
2022/05/16 05:17:35;;;;;;;3.67;2.60;;;10.30;99.90;;;;;;4990889;28;20041;-47
2022/05/16 05:20:01;;;;;;;6.13;2.67;;;10.40;99.90;;;;;;4989909;28;20037;-47
2022/05/16 05:22:27;;;;;;;5.22;2.80;;;10.40;99.90;;;;;;4989912;28;20092;-45
2022/05/16 05:24:52;;;;;;;4.95;2.70;;;10.50;99.90;;;;;;4989937;28;20026;-48
2022/05/16 05:27:18;;;;;;;4.93;2.35;;;10.60;99.90;;;;;;4990256;28;20026;-45
2022/05/16 05:29:44;;;;;;;5.97;2.95;;;10.60;99.90;;;;;;4990319;28;20031;-47
2022/05/16 05:32:09;;;;;;;3.95;2.67;;;10.70;99.90;;;;;;4990211;28;20105;-46
2022/05/16 05:34:38;;;;;;;4.78;2.38;;;10.90;99.90;;;;;;4990613;28;20125;-45
2022/05/16 05:37:04;;;;;;;4.55;2.40;;;11.00;99.90;;;;;;4993020;28;20490;-46
2022/05/16 05:39:31;;;;;;;3.33;2.13;;;11.00;99.90;;;;;;4994077;28;20030;-46
2022/05/16 05:41:57;;;;;;;4.43;2.22;;;11.10;99.90;;;;;;4993606;28;20026;-45
2022/05/16 05:44:23;;;;;;;4.00;2.75;;;11.20;99.90;;;;;;4994051;28;20030;-46
2022/05/16 05:46:48;;;;;;;3.80;2.00;;;11.30;99.90;;;;;;4993776;28;20029;-46
2022/05/16 05:49:14;;;;;;;7.82;2.33;;;11.40;99.90;;;;;;4993445;28;20023;-46
2022/05/16 05:51:40;;;;;;;3.25;1.92;;;11.50;99.90;;;;;;4993172;28;20025;-47
2022/05/16 05:54:06;;;;;;;6.57;1.95;;;11.70;99.90;;;;;;4992399;28;20082;-51
2022/05/16 05:56:33;;;;;;;3.38;2.17;;;11.90;99.90;;;;;;4993640;28;20479;-49
2022/05/16 05:58:59;;;;;;;4.07;2.13;;;12.00;99.90;;;;;;4993599;28;20109;-49
2022/05/16 06:01:26;;;;;;;10.07;2.63;;;12.20;99.90;;;;;;4993348;28;20030;-46
2022/05/16 06:03:52;;;;;;;5.00;2.10;;;12.40;99.90;;;;;;4993513;28;20022;-49
2022/05/16 06:06:18;;;;;;;6.43;2.35;;;12.60;99.90;;;;;;4993618;28;20034;-46
2022/05/16 06:08:44;;;;;;;3.58;1.70;;;12.90;99.90;;;;;;4993565;28;20015;-46
2022/05/16 06:11:09;;;;;;;5.40;2.10;;;13.10;99.90;;;;;;4992106;28;20066;-47
2022/05/16 06:13:35;;;;;;;6.93;2.50;;;13.30;99.90;;;;;;4993510;28;20035;-46
2022/05/16 06:16:01;;;;;;;5.13;1.90;;;13.60;99.90;;;;;;4992445;28;20023;-47
2022/05/16 06:18:26;;;;;;;6.10;2.05;;;13.80;99.90;;;;;;4993670;28;20037;-46
2022/05/16 06:20:52;;;;;;;5.60;2.10;;;14.00;99.90;;;;;;4992622;28;20026;-49
2022/05/16 06:23:18;;;;;;;2.95;1.77;;;14.20;99.90;;;;;;4992809;28;20045;-50
2022/05/16 06:25:44;;;;;;;4.45;1.80;;;14.50;99.90;;;;;;4992740;28;20030;-46
2022/05/16 06:28:21;;;;;;;1.48;1.35;;;14.60;99.90;;;;;;4993012;28;20088;-47
2022/05/16 06:30:50;;;;;;;5.22;1.90;;;14.80;99.90;;;;;;4991782;28;20518;-46
2022/05/16 06:33:17;;;;;;;5.90;2.40;;;15.10;99.90;;;;;;4992872;28;20544;-46
2022/05/16 06:35:43;;;;;;;4.43;2.28;;;15.30;99.90;;;;;;4991795;28;20506;-47
2022/05/16 06:38:11;;;;;;;2.15;1.50;;;15.50;99.90;;;;;;4992986;28;20035;-45
2022/05/16 06:40:39;;;;;;;3.97;1.88;;;15.60;99.90;;;;;;4992686;28;20026;-46
2022/05/16 06:43:05;;;;;;;3.53;1.80;;;15.90;99.90;;;;;;4992466;28;20026;-46
2022/05/16 06:45:31;;;;;;;3.78;1.77;;;16.10;99.90;;;;;;4992774;28;20030;-47
2022/05/16 06:47:57;;;;;;;1.58;1.23;;;16.30;99.90;;;;;;4991649;28;20026;-45
2022/05/16 06:50:23;;;;;;;4.15;1.48;;;16.50;99.90;;;;;;4992697;28;20019;-50
2022/05/16 06:52:48;;;;;;;4.80;1.88;;;16.70;99.90;;;;;;4992704;28;20106;-49
2022/05/16 06:55:15;;;;;;;5.47;1.65;;;16.80;99.90;;;;;;4993149;28;20654;-46
2022/05/16 06:57:40;;;;;;;2.88;1.60;;;17.00;99.90;;;;;;4992723;28;20022;-47
2022/05/16 07:00:08;;;;;;;3.80;1.80;;;17.20;99.90;;;;;;4992437;28;20035;-50
2022/05/16 07:02:34;;;;;;;4.80;1.90;;;17.30;99.90;;;;;;4992157;28;20604;-48
2022/05/16 07:05:00;;;;;;;3.58;1.40;;;17.40;99.90;;;;;;4992507;28;20034;-50
2022/05/16 07:07:26;;;;;;;6.93;2.20;;;17.50;99.90;;;;;;4992533;28;20054;-51
2022/05/16 07:09:52;;;;;;;6.63;1.80;;;17.60;99.90;;;;;;4992402;28;20506;-49
2022/05/16 07:12:17;;;;;;;3.97;1.67;;;17.80;99.90;;;;;;4992054;28;20109;-48
2022/05/16 07:14:45;;;;;;;5.68;1.98;;;17.80;99.90;;;;;;4992303;28;20506;-51
2022/05/16 07:17:11;;;;;;;3.72;1.98;;;18.00;99.60;;;;;;4992289;28;20042;-47
2022/05/16 07:19:37;;;;;;;4.38;1.80;;;18.00;99.40;;;;;;4991540;28;20069;-50
2022/05/16 07:22:09;;;;;;;2.17;1.40;;;18.10;99.30;;;;;;4991838;28;20110;-52
2022/05/16 07:24:34;;;;;;;4.00;1.67;;;18.20;98.60;;;;;;4991952;28;20027;-47
2022/05/16 07:29:44;;;;;;;4.75;1.48;;;18.40;98.80;;;;;;4992281;28;20502;-50
2022/05/16 07:32:12;;;;;;;3.05;1.42;;;18.60;97.50;;;;;;4991938;28;20030;-50
2022/05/16 07:34:38;;;;;;;2.15;1.52;;;18.60;97.60;;;;;;4992126;28;20101;-51
2022/05/16 07:37:04;;;;;;;3.13;1.50;;;18.70;97.80;;;;;;4992048;28;20459;-49
2022/05/16 07:39:30;;;;;;;3.33;1.65;;;18.80;98.00;;;;;;4991865;28;20113;-49
2022/05/16 07:41:55;;;;;;;3.40;1.83;;;18.90;97.50;;;;;;4991508;28;20041;-48
2022/05/16 07:44:21;;;;;;;3.20;1.25;;;18.90;97.10;;;;;;4991794;28;20458;-48
2022/05/16 07:46:46;;;;;;;4.03;1.75;;;19.00;97.90;;;;;;4991562;28;20057;-51
2022/05/16 07:49:13;;;;;;;3.35;1.70;;;19.10;97.10;;;;;;4991663;28;20026;-49
2022/05/16 07:51:40;;;;;;;4.28;1.83;;;19.00;96.50;;;;;;4991404;28;20015;-47
2022/05/16 07:54:05;;;;;;;4.35;2.03;;;19.00;97.00;;;;;;4991709;28;20475;-47
2022/05/16 07:56:32;;;;;;;3.33;1.58;;;19.30;96.40;;;;;;4991681;28;20061;-50
2022/05/16 07:58:58;;;;;;;2.55;1.92;;;19.50;96.40;;;;;;4991132;28;20034;-50
2022/05/16 08:01:24;;;;;;;4.85;1.80;;;19.50;96.50;;;;;;4991128;28;20113;-52
2022/05/16 08:03:49;;;;;;;3.45;1.70;;;19.60;96.50;;;;;;4991403;28;20069;-50
2022/05/16 08:06:15;;;;;;;2.90;1.48;;;19.60;94.90;;;;;;4991511;28;20061;-46
2022/05/16 08:11:24;;;;;;;2.92;1.58;;;19.80;94.40;;;;;;4991558;28;20029;-47
2022/05/16 08:13:50;;;;;;;2.53;1.38;;;19.70;94.90;;;;;;4991478;28;20101;-51
2022/05/16 08:16:16;;;;;;;3.00;1.40;;;19.80;95.60;;;;;;4991243;28;20069;-49
2022/05/16 08:18:42;;;;;;;3.60;1.80;;;20.10;95.50;;;;;;4991269;28;20018;-52
2022/05/16 08:21:10;;;;;;;4.65;1.60;;;20.30;94.70;;;;;;4990675;28;20480;-49
2022/05/16 08:23:36;;;;;;;2.95;1.40;;;20.40;94.20;;;;;;4990774;28;20026;-48
2022/05/16 08:26:04;;;;;;;3.53;1.42;;;20.60;93.80;;;;;;4990749;28;20026;-47
2022/05/16 08:28:30;;;;;;;4.40;1.65;;;20.70;94.80;;;;;;4990861;28;20608;-47
2022/05/16 08:30:57;;;;;;;3.97;1.50;;;21.00;93.30;;;;;;4991156;28;20501;-49
2022/05/16 08:33:22;;;;;;;3.95;1.55;;;21.10;93.40;;;;;;4990937;28;20030;-49
2022/05/16 08:41:22;;;;;;;3.55;1.55;;;21.20;92.20;;;;;;4990597;28;20501;-49
2022/05/16 08:43:51;;;;;;;2.05;1.45;;;21.40;93.00;;;;;;4990859;28;20129;-46
2022/05/16 08:46:36;;;;;;;3.58;1.88;;;21.60;92.10;;;;;;4990812;28;20019;-51
2022/05/16 08:49:18;;;;;;;2.65;1.52;;;21.70;91.60;;;;;;4990892;28;20027;-49
2022/05/16 08:51:51;;;;;;;3.67;2.05;;;22.00;91.90;;;;;;4990714;28;20105;-48
2022/05/16 08:54:37;;;;;;;3.38;1.50;;;22.10;90.80;;;;;;4990979;28;20450;-48
2022/05/16 08:57:07;;;;;;;5.53;2.10;;;22.30;90.60;;;;;;4990711;28;20027;-47
2022/05/16 08:59:38;;;;;;;3.33;1.83;;;22.10;90.10;;;;;;4990387;28;20038;-50
2022/05/16 09:02:18;;;;;;;4.13;2.13;;;22.20;90.70;;;;;;4990627;28;20551;-51
2022/05/16 09:04:58;;;;;;;3.15;1.30;;;22.40;91.30;;;;;;4990777;28;20117;-50
2022/05/16 09:07:32;;;;;;;6.40;1.67;;;22.50;88.20;;;;;;4990723;28;20029;-53
2022/05/16 09:10:34;;;;;;;3.38;2.05;;;22.50;88.30;;;;;;4990493;28;20504;-50
2022/05/16 09:13:30;;;;;;;3.17;1.38;;;22.50;86.90;;;;;;4961469;28;20062;-50
2022/05/16 09:16:23;;;;;;;3.00;1.80;;;22.50;86.90;;;;;;4994738;28;20029;-51
2022/05/16 09:19:08;;;;;;;3.47;1.50;;;22.60;87.60;;;;;;4993139;28;20030;-51
2022/05/16 09:21:45;;;;;;;3.45;2.10;;;22.50;86.90;;;;;;4994232;28;20038;-47
2022/05/16 09:24:14;;;;;;;2.42;1.50;;;22.60;86.20;;;;;;4994229;28;20030;-48
2022/05/16 09:28:34;;;;;;;4.95;1.77;;;22.50;85.80;;;;;;4994871;28;20482;-51
2022/05/16 09:30:06;;;;;;;5.22;1.60;;;22.70;87.30;;;;;;4994396;28;20034;-49
2022/05/16 09:32:36;;;;;;;3.45;1.55;;;22.90;84.70;;;;;;4994063;28;20030;-51
2022/05/16 09:35:04;;;;;;;3.72;1.83;;;23.10;85.10;;;;;;4994181;28;20031;-50
2022/05/16 09:37:30;;;;;;;2.80;1.75;;;23.10;83.10;;;;;;4994324;28;20085;-46
2022/05/16 09:39:56;;;;;;;3.05;1.70;;;23.20;83.80;;;;;;4992824;28;20058;-51
2022/05/16 09:42:31;;;;;;;6.07;1.67;;;23.10;82.50;;;;;;4994040;28;20062;-54
2022/05/16 09:45:02;;;;;;;3.13;1.67;;;23.10;82.50;;;;;;4993991;28;20033;-51
2022/05/16 09:47:35;;;;;;;1.92;1.50;;;23.10;81.60;;;;;;4992647;28;20030;-50
2022/05/16 09:50:07;;;;;;;2.33;1.45;;;23.10;83.10;;;;;;4993995;28;20034;-49
2022/05/16 09:52:40;;;;;;;3.20;1.40;;;23.10;81.70;;;;;;4993705;28;20069;-50
2022/05/16 09:55:12;;;;;;;3.80;1.70;;;23.10;81.00;;;;;;4994020;28;20022;-47
2022/05/16 09:57:50;;;;;;;3.22;1.55;;;23.00;81.10;;;;;;4993901;28;20363;-50
2022/05/16 10:00:40;;;;;;;2.38;1.50;;;23.00;79.20;;;;;;4993625;28;20038;-50
2022/05/16 10:03:43;;;;;;;4.30;1.77;;;23.00;80.40;;;;;;4993796;28;20037;-50
2022/05/16 10:06:26;;;;;;;3.40;1.48;;;23.00;81.00;;;;;;4984424;28;20371;-50
2022/05/16 10:08:52;;;;;;;4.47;1.40;;;23.00;81.20;;;;;;4993975;28;20054;-50
2022/05/16 10:11:26;;;;;;;3.20;1.63;;;23.10;81.70;;;;;;4993408;28;20120;-54
2022/05/16 10:13:53;;;;;;;3.92;1.42;;;23.10;80.80;;;;;;4993763;28;20046;-52
2022/05/16 10:16:21;;;;;;;1.92;1.50;;;23.00;79.60;;;;;;4993553;28;20018;-52
2022/05/16 10:18:56;;;;;;;2.45;1.40;;;23.00;80.40;;;;;;4993411;28;20042;-49
2022/05/16 10:21:50;;;;;;;4.20;1.60;;;23.10;81.70;;;;;;4992936;28;20022;-50
2022/05/16 10:24:18;;;;;;;3.75;1.80;;;23.20;79.60;;;;;;4985953;28;20049;-54
2022/05/16 10:26:48;;;;;;;3.22;1.52;;;23.20;78.50;;;;;;4993499;28;20089;-46
2022/05/16 10:29:40;;;;;;;2.03;1.38;;;23.10;78.90;;;;;;4993259;28;20030;-48
2022/05/16 10:35:10;;;;;;;3.85;1.70;;;23.00;80.00;;;;;;4993558;28;20535;-47
2022/05/16 10:37:41;;;;;;;4.32;1.60;;;23.00;79.60;;;;;;4992946;28;20153;-47
2022/05/16 10:40:35;;;;;;;4.28;1.70;;;23.00;78.60;;;;;;4993185;28;20137;-53
2022/05/16 10:43:22;;;;;;;4.35;1.70;;;23.00;78.40;;;;;;4983939;28;20039;-55
2022/05/16 10:45:53;;;;;;;2.22;1.50;;;22.90;78.90;;;;;;4993046;28;20084;-53
2022/05/16 10:48:44;;;;;;;4.10;1.90;;;22.90;80.30;;;;;;4991679;28;20031;-52
2022/05/16 10:51:38;;;;;;;3.17;2.00;;;22.80;77.60;;;;;;4969319;28;20037;-51
2022/05/16 10:54:18;;;;;;;2.83;1.67;;;22.80;77.00;;;;;;4992782;28;20050;-50
2022/05/16 10:57:10;;;;;;;1.95;1.30;;;22.80;80.40;;;;;;4992817;28;20046;-52
2022/05/16 10:59:56;;;;;;;3.28;1.90;;;22.80;79.30;;;;;;4992316;28;20483;-49
2022/05/16 11:02:59;;;;;;;3.85;1.65;;;22.90;79.20;;;;;;4992386;28;20030;-51
2022/05/16 11:06:10;;;;;;;1.98;1.40;;;23.00;78.40;;;;;;4991411;28;20226;-49
2022/05/16 11:08:57;;;;;;;3.10;1.13;;;23.00;79.50;;;;;;4969459;28;20503;-49
2022/05/16 11:12:00;;;;;;;2.80;1.27;;;23.10;78.60;;;;;;4992280;28;20550;-49
2022/05/16 11:14:46;;;;;;;3.88;1.73;;;23.10;77.70;;;;;;4992459;28;20503;-50
2022/05/16 11:17:34;;;;;;;2.67;1.88;;;23.10;77.60;;;;;;4992503;28;20037;-53
2022/05/16 11:20:19;;;;;;;3.67;1.55;;;23.00;76.40;;;;;;4992302;28;20446;-48
2022/05/16 11:22:54;;;;;;;3.10;1.45;;;23.10;78.50;;;;;;4991930;28;20026;-48
2022/05/16 11:25:27;;;;;;;3.45;1.63;;;23.20;79.40;;;;;;4991687;28;20383;-51
2022/05/16 11:28:15;;;;;;;3.38;1.25;;;23.30;76.70;;;;;;4992136;28;20045;-51
2022/05/16 11:30:59;;;;;;;2.67;1.30;;;23.40;76.70;;;;;;4992124;28;20092;-48
2022/05/16 11:33:46;;;;;;;3.20;1.48;;;23.40;76.80;;;;;;4991534;28;20121;-55
2022/05/16 11:36:18;;;;;;;4.43;1.42;;;23.40;74.90;;;;;;4992000;28;20022;-51
2022/05/16 11:38:50;;;;;;;2.85;1.73;;;23.40;75.00;;;;;;4992045;28;20514;-47
2022/05/16 11:41:40;;;;;;;3.88;1.70;;;23.40;75.60;;;;;;4991700;28;20026;-52
2022/05/16 11:44:27;;;;;;;2.40;1.23;;;23.50;74.70;;;;;;4991794;28;20022;-52
2022/05/16 11:47:19;;;;;;;3.22;1.40;;;23.60;76.10;;;;;;4991928;28;20022;-52
2022/05/16 11:50:04;;;;;;;2.28;1.17;;;23.70;75.20;;;;;;4991737;28;20025;-49
2022/05/16 11:53:06;;;;;;;2.67;1.40;;;23.70;74.40;;;;;;4991506;28;20022;-46
2022/05/16 12:01:25;;;;;;;4.90;1.70;;;23.70;74.70;;;;;;4991826;28;20097;-48
2022/05/16 12:04:13;;;;;;;2.50;1.40;;;23.80;75.40;;;;;;4991532;28;20088;-47
2022/05/16 12:06:45;;;;;;;2.30;1.52;;;23.90;75.70;;;;;;4991451;28;20030;-47
2022/05/16 12:09:17;;;;;;;3.20;1.58;;;24.00;75.20;;;;;;4991430;28;20019;-47
2022/05/16 12:12:11;;;;;;;5.32;1.50;;;24.10;75.20;;;;;;4991170;28;20057;-47
2022/05/16 12:14:39;;;;;;;3.33;1.48;;;24.10;73.00;;;;;;4989623;28;20046;-48
2022/05/16 12:17:07;;;;;;;3.08;1.63;;;24.20;72.20;;;;;;4991314;28;20051;-49
2022/05/16 12:19:41;;;;;;;3.28;1.45;;;24.20;72.20;;;;;;4990801;28;20484;-50
2022/05/16 12:22:31;;;;;;;1.80;1.45;;;24.30;72.70;;;;;;4990693;28;20085;-47
2022/05/16 12:25:01;;;;;;;3.75;1.70;;;24.30;72.40;;;;;;4990948;28;20037;-46
2022/05/16 12:27:35;;;;;;;2.10;1.60;;;24.30;73.20;;;;;;4990948;28;20033;-48
2022/05/16 12:30:06;;;;;;;2.70;1.38;;;24.40;74.10;;;;;;4990785;28;20030;-51
2022/05/16 12:32:31;;;;;;;2.00;1.38;;;24.50;74.80;;;;;;5005584;28;20486;-48
2022/05/16 12:35:08;;;;;;;5.82;1.50;;;24.60;72.80;;;;;;4991147;28;20034;-52
2022/05/16 12:37:34;;;;;;;3.17;1.77;;;24.70;71.90;;;;;;4991162;28;20018;-49
2022/05/16 12:40:21;;;;;;;3.88;1.80;;;24.70;74.10;;;;;;4990788;28;20530;-52
2022/05/16 12:43:24;;;;;;;3.08;1.83;;;24.70;71.50;;;;;;4990685;28;20038;-51
2022/05/16 12:45:50;;;;;;;2.40;1.33;;;24.70;72.00;;;;;;4989647;28;20058;-47
2022/05/16 12:48:34;;;;;;;1.25;1.15;;;24.90;71.40;;;;;;4990672;28;20057;-48
2022/05/16 12:51:11;;;;;;;3.65;1.60;;;24.90;70.50;;;;;;4990651;28;20534;-50
2022/05/16 12:54:07;;;;;;;1.85;1.10;;;25.00;70.50;;;;;;4990809;28;20495;-49
2022/05/16 12:56:42;;;;;;;2.17;1.63;;;25.10;69.30;;;;;;4991008;28;20018;-52
2022/05/16 12:59:32;;;;;;;3.55;1.55;;;25.10;68.60;;;;;;4990596;28;20486;-50
2022/05/16 13:02:35;;;;;;;5.80;1.70;;;25.10;70.60;;;;;;4988980;28;20411;-50
2022/05/16 13:05:32;;;;;;;3.20;1.80;;;25.20;69.90;;;;;;4990768;28;20031;-54
2022/05/16 13:08:13;;;;;;;3.05;1.50;;;25.20;70.40;;;;;;4990572;28;20096;-49
2022/05/16 13:11:11;;;;;;;4.68;1.90;;;25.30;69.20;;;;;;4990689;28;20028;-52
2022/05/16 13:14:17;;;;;;;3.40;1.67;;;25.30;68.20;;;;;;4990996;28;20494;-49
2022/05/16 13:17:00;;;;;;;1.73;1.38;;;25.30;69.50;;;;;;4988483;28;20038;-50
2022/05/16 13:19:32;;;;;;;2.30;1.40;;;25.40;68.80;;;;;;4990357;28;20038;-53
2022/05/16 13:22:18;;;;;;;2.65;1.90;;;25.40;67.50;;;;;;4990067;28;20109;-51
2022/05/16 13:24:43;;;;;;;5.72;1.58;;;25.50;67.70;;;;;;4990145;28;20089;-47
2022/05/16 13:30:02;;;;;;;4.00;1.45;;;25.50;67.00;;;;;;4990698;28;20054;-54
2022/05/16 13:32:30;;;;;;;5.10;1.60;;;25.50;68.90;;;;;;4988575;28;20553;-50
2022/05/16 13:34:58;;;;;;;2.42;1.88;;;25.60;67.30;;;;;;4990290;28;20049;-51
2022/05/16 13:37:29;;;;;;;1.73;1.50;;;25.60;68.50;;;;;;4990275;28;20034;-50
2022/05/16 13:40:13;;;;;;;1.95;1.10;;;25.60;67.70;;;;;;4990371;28;20022;-54
2022/05/16 13:42:41;;;;;;;2.65;1.65;;;25.70;67.20;;;;;;4989974;28;20046;-48
2022/05/16 13:45:08;;;;;;;5.78;1.55;;;25.80;67.60;;;;;;4990253;28;20046;-49
2022/05/16 13:47:40;;;;;;;3.20;1.73;;;25.80;66.20;;;;;;4990153;28;20030;-51
2022/05/16 13:50:07;;;;;;;4.32;1.52;;;25.70;66.00;;;;;;4989148;28;20133;-52